x

Port Aransas, Tx (ptat2) Weather Station

12:00pm - Mon 24th Jul 2017 All times are CDT. -5 hours from GMT.

  • Wind
    20mph, 22mph gusts
  • Sea Temp 85°f
  • Air Temp 84°f
  • Sea Pressure 1015.9mb
  • Port Aransas, Tx
  • Port Aransas, Tx

More Historic Weather Station data

Upgrade to MSW Pro to gain access to the past 30 days of data for over 8000 Wavebouys and Weather Stations around the globe.

Join Pro

Comparision Forecast

View Surf forecast
   
Mon 07/24 12:00pm 20 22 mph 1015.9mb 85f 84f
11:00am 18 21 mph 1015.7mb 85f 84f
10:00am 21 23 mph 1015.3mb 84f 84f
9:00am 21 23 mph 1014.7mb 84f 84f
8:00am 23 24 mph 1014.2mb 84f 83f
7:00am 21 23 mph 1014.1mb 84f 83f
6:00am 22 24 mph 1013.6mb 84f 84f
5:00am 23 25 mph 1013.3mb 85f 84f
4:00am 25 28 mph 1012.8mb 85f 84f
3:00am 26 29 mph 1012.7mb 85f 84f
2:00am 25 29 mph 1013mb 85f 84f
1:00am 26 30 mph 1013.2mb 85f 84f
12:00am 23 26 mph 1013.3mb 85f 84f
Sun 07/23 11:00pm 24 26 mph 1013.2mb 85f 84f
10:00pm 24 26 mph 1013.1mb 86f 85f
9:00pm 28 31 mph 1011.5mb 86f 84f
8:00pm 24 28 mph 1011.7mb 86f 85f
7:00pm 28 30 mph 1011.5mb 87f 85f
6:00pm 29 31 mph 1011.1mb 87f 85f
5:00pm 26 29 mph 1011.2mb 87f 85f
4:00pm 26 29 mph 1012mb 87f 85f
3:00pm 25 28 mph 1013.1mb 86f 85f
2:00pm 24 25 mph 1013.9mb 86f 85f
1:00pm 22 25 mph 1014.2mb 86f 85f
12:00pm 22 26 mph 1014.2mb 85f 85f
11:00am 25 26 mph 1013.9mb 85f 85f
10:00am 24 26 mph 1013.8mb 85f 84f
9:00am 25 26 mph 1013.4mb 85f 84f
8:00am 24 26 mph 1013mb 85f 84f
7:00am 25 29 mph 1012.4mb 85f 84f
6:00am 28 31 mph 1012.2mb 85f 84f
5:00am 26 30 mph 1011.8mb 85f 84f
4:00am 24 28 mph 1012.1mb 85f 84f
3:00am 26 29 mph 1012.6mb 86f 84f
2:00am 24 26 mph 1013.3mb 86f 84f
1:00am 26 28 mph 1013.6mb 86f 84f
12:00am 26 28 mph 1013.4mb 86f 85f
Sat 07/22 11:00pm 25 29 mph 1013.2mb 87f 84f
10:00pm 25 28 mph 1012.6mb 87f 85f
9:00pm 26 29 mph 1012.4mb 87f 85f
8:00pm 25 28 mph 1012mb 88f 85f
7:00pm 24 26 mph 1011.9mb 88f 85f
6:00pm 24 28 mph 1012.2mb 88f 85f
5:00pm 22 24 mph 1012.8mb 88f 85f
4:00pm 21 23 mph 1013.4mb 88f 85f
3:00pm 21 24 mph 1013.9mb 88f 85f
2:00pm 17 20 mph 1014.4mb 87f 85f
1:00pm 16 18 mph 1015.1mb 87f 85f
12:00pm 14 15 mph 1015.6mb 87f 85f
11:00am 16 17 mph 1015.7mb 86f 84f
10:00am 17 18 mph 1015.5mb 86f 84f
9:00am 17 18 mph 1015.3mb 86f 84f
8:00am 17 18 mph 1014.6mb 86f 84f
7:00am 17 18 mph 1014.2mb 86f 84f
6:00am 18 21 mph 1014mb 87f 84f
5:00am 18 21 mph 1013.7mb 87f 84f
4:00am 20 22 mph 1013.5mb 87f 84f
3:00am 20 22 mph 1013.7mb 87f 84f
2:00am 20 22 mph 1013.9mb 87f 84f
1:00am 20 21 mph 1014.6mb 87f 85f
12:00am 18 22 mph 1014.6mb 88f 85f
Fri 07/21 11:00pm 18 21 mph 1014.6mb 88f 85f
10:00pm 21 22 mph 1014mb 88f 85f
9:00pm 21 23 mph 1013.7mb 88f 85f
8:00pm 21 23 mph 1014mb 89f 85f
7:00pm 21 22 mph 1013.9mb 89f 85f
6:00pm 17 20 mph 1014.3mb 89f 85f
5:00pm 16 17 mph 1014.6mb 89f 85f
4:00pm 15 17 mph 1015.2mb 89f 85f
3:00pm 13 15 mph 1016mb 88f 85f
2:00pm 11 13 mph 1016.7mb 88f 85f
1:00pm 10 13 mph 1017.1mb 87f 85f
12:00pm 10 11 mph 1017.4mb 87f 85f
11:00am 11 13 mph 1017.3mb 87f 85f
10:00am 10 10 mph 1017.4mb 87f 85f
9:00am 10 11 mph 1017mb 86f 84f
8:00am 11 13 mph 1016.5mb 86f 84f
7:00am 14 16 mph 1015.6mb 87f 84f
6:00am 15 16 mph 1015mb 87f 84f
5:00am 17 18 mph 1014.9mb 87f 84f
4:00am 20 22 mph 1015.1mb 87f 84f
3:00am 20 21 mph 1015.6mb 87f 84f
2:00am 21 22 mph 1016.2mb 87f 85f
1:00am 20 22 mph 1016.8mb 88f 85f
12:00am 21 23 mph 1017.1mb 88f 85f
Thu 07/20 11:00pm 21 22 mph 1016.7mb 88f 85f
10:00pm 18 20 mph 1016.4mb 88f 85f
9:00pm 20 21 mph 1015.9mb 89f 85f
8:00pm 17 21 mph 1015.8mb 89f 85f
7:00pm 17 20 mph 1016mb 89f 85f